Portada
METAR-TAF:

METAR-TAF

Aeroports :

Krabi, Tailàndia

latitud: 08-06-03N, longitud: 098-59-05E, altitud: 25 m

Observació

L'informe es va fer fa 54 minuts, a les 22:00 UTC
Vent 6 kt del Nord/Nord-Est, variant entre Nord i Est/Nord-Est
Temperatura 22°C
Humitat 94%
Pressió 1010 hPa
Visibilitat 10 km o més
Escasses núvols a una alçada de 2000 ft

METAR: VTSG 112200Z 03006KT 360V060 9999 FEW020 22/21 Q1010 NOSIG

Hora: 05:54 (22:54 UTC)

Pronòstic

L'informe es va fer fa 5 hores i 54 minuts, a les 17:00 UTC
Pronòstic vàlid del 11 a les 18 UTC al 12 a les 18 UTC
Vent 6 kt del Est/Nord-Est
Visibilitat 10 km o més
Escasses núvols a una alçada de 2000 ft

TAF: VTSG 111700Z 1118/1218 06006KT 9999 FEW020

Observacions i pronòstics meteorològics de més de 4000 aeroports (METAR i TAF).

Les estacions disponibles són els punts grocs i vermells al mapa.

Posi el ratolí al punt desitjat per veure el nom de l'estació.

Feu clic per veure les observacions i els pronòstics meteorològics.

Per canviar el mapa: feu clic els botons verds amb una creu de color negre per apropar; al botó verd amb un guió per allunyar la imatge; o en les fletxes verdes per a mapes adjacents.


METAR-TAF: